createdAt,value
2019-02-07T00:02:16.793Z,72.50
2019-02-07T00:04:44.164Z,54.57
2019-02-07T00:07:11.827Z,67.03
2019-02-07T00:09:39.234Z,64.43
2019-02-07T00:12:06.578Z,46.17
2019-02-07T00:14:39.726Z,37.10
2019-02-07T00:17:03.334Z,80.07
2019-02-07T00:19:30.771Z,33.43
2019-02-07T00:21:58.159Z,58.17
2019-02-07T00:24:25.914Z,40.43
2019-02-07T00:26:53.355Z,58.33
2019-02-07T00:29:20.719Z,137.43
2019-02-07T00:31:47.968Z,91.30
2019-02-07T00:34:15.343Z,59.50
2019-02-07T00:36:43.108Z,58.93
2019-02-07T00:39:10.488Z,37.40
2019-02-07T00:41:38.008Z,62.27
2019-02-07T00:44:05.488Z,79.97
2019-02-07T00:46:32.832Z,34.63
2019-02-07T00:49:00.188Z,71.77
2019-02-07T00:51:27.547Z,99.90
2019-02-07T00:53:55.004Z,97.27
2019-02-07T00:56:22.361Z,94.37
2019-02-07T00:58:49.936Z,103.93
2019-02-07T01:01:17.415Z,153.00
2019-02-07T01:03:44.906Z,132.07
2019-02-07T01:06:12.244Z,114.57
2019-02-07T01:08:39.638Z,95.17
2019-02-07T01:11:06.984Z,60.30
2019-02-07T01:13:34.448Z,153.37
2019-02-07T01:16:02.042Z,85.67
2019-02-07T01:18:29.384Z,118.20
2019-02-07T01:20:56.773Z,83.63
2019-02-07T01:23:24.230Z,61.93
2019-02-07T01:25:51.656Z,98.23
2019-02-07T01:28:19.025Z,43.83
2019-02-07T01:30:46.387Z,47.43
2019-02-07T01:33:14.140Z,89.17
2019-02-07T01:35:41.551Z,51.60
2019-02-07T01:38:08.927Z,115.93
2019-02-07T01:40:36.425Z,39.70
2019-02-07T01:43:03.913Z,73.73
2019-02-07T01:45:31.391Z,58.53
2019-02-07T01:47:58.765Z,65.20
2019-02-07T01:50:26.652Z,44.90
2019-02-07T01:52:54.326Z,56.33
2019-02-07T01:55:22.083Z,43.73
2019-02-07T01:57:49.857Z,48.20
2019-02-07T02:00:17.428Z,38.57
2019-02-07T02:02:45.259Z,24.07
2019-02-07T02:05:13.844Z,40.63
2019-02-07T02:07:41.628Z,45.30
2019-02-07T02:10:17.041Z,37.93
2019-02-07T02:12:44.504Z,42.37
2019-02-07T02:15:24.126Z,54.67
2019-02-07T02:17:43.555Z,50.33
2019-02-07T02:20:11.128Z,35.47
2019-02-07T02:22:39.178Z,23.20
2019-02-07T02:25:07.676Z,45.73
2019-02-07T02:27:35.152Z,128.13
2019-02-07T02:30:04.706Z,157.27
2019-02-07T02:32:32.088Z,129.97
2019-02-07T02:34:59.869Z,82.90
2019-02-07T02:37:27.369Z,28.07
2019-02-07T02:39:55.116Z,39.17
2019-02-07T02:42:22.740Z,25.63
2019-02-07T02:44:50.095Z,22.17
2019-02-07T02:47:17.585Z,47.13
2019-02-07T02:49:45.383Z,109.20
2019-02-07T02:52:12.757Z,124.77
2019-02-07T02:54:59.777Z,45.07
2019-02-07T02:57:27.273Z,36.23
2019-02-07T02:59:54.970Z,32.93
2019-02-07T03:02:45.601Z,24.90
2019-02-07T03:05:31.425Z,51.97
2019-02-07T03:08:17.288Z,25.97
2019-02-07T03:11:02.988Z,117.10
2019-02-07T03:13:49.997Z,134.63
2019-02-07T03:16:46.041Z,104.60
2019-02-07T03:19:32.632Z,81.17
2019-02-07T03:22:12.221Z,41.27
2019-02-07T03:25:11.689Z,26.03
2019-02-07T03:27:50.600Z,40.60
2019-02-07T03:30:40.446Z,23.67
2019-02-07T03:33:14.864Z,26.10
2019-02-07T03:35:54.051Z,24.13
2019-02-07T03:38:48.459Z,34.93
2019-02-07T03:41:47.560Z,57.90
2019-02-07T03:44:29.148Z,77.20
2019-02-07T03:47:08.132Z,23.97
2019-02-07T03:49:51.268Z,17.03
2019-02-07T03:52:37.303Z,73.27
2019-02-07T03:55:30.265Z,53.03
2019-02-07T03:58:12.529Z,36.97
2019-02-07T04:01:05.395Z,48.73
2019-02-07T04:03:52.564Z,38.60
2019-02-07T04:06:28.575Z,59.27
2019-02-07T04:09:22.717Z,60.27
2019-02-07T04:12:12.233Z,65.27
2019-02-07T04:14:54.269Z,55.63
2019-02-07T04:17:46.801Z,106.10
2019-02-07T04:20:28.864Z,22.53
2019-02-07T04:23:13.938Z,18.43
2019-02-07T04:25:55.133Z,18.50
2019-02-07T04:28:48.184Z,24.27
2019-02-07T04:31:41.539Z,20.97
2019-02-07T04:34:37.341Z,31.68
2019-02-07T04:37:18.388Z,25.77
2019-02-07T04:40:05.411Z,29.10
2019-02-07T04:42:56.662Z,20.90
2019-02-07T04:45:32.124Z,14.80
2019-02-07T04:48:18.035Z,17.57
2019-02-07T04:51:04.096Z,16.57
2019-02-07T04:54:03.229Z,16.17
2019-02-07T04:56:48.952Z,12.73
2019-02-07T04:59:23.176Z,9.30
2019-02-07T05:02:02.956Z,17.50
2019-02-07T05:04:45.031Z,15.13
2019-02-07T05:07:27.117Z,14.77
2019-02-07T05:10:16.129Z,17.20
2019-02-07T05:13:15.044Z,16.03
2019-02-07T05:16:08.062Z,13.23
2019-02-07T05:19:00.960Z,18.83
2019-02-07T05:21:46.918Z,16.47
2019-02-07T05:24:32.277Z,14.17
2019-02-07T05:27:18.608Z,19.40
2019-02-07T05:29:59.406Z,12.97
2019-02-07T05:32:43.939Z,12.47
2019-02-07T05:35:36.517Z,12.80
2019-02-07T05:38:26.706Z,15.07
2019-02-07T05:41:14.120Z,12.33
2019-02-07T05:43:50.137Z,11.80
2019-02-07T05:46:37.890Z,12.47
2019-02-07T05:49:24.881Z,14.83
2019-02-07T05:52:04.380Z,11.00
2019-02-07T05:54:46.540Z,12.37
2019-02-07T05:57:32.311Z,12.97
2019-02-07T06:00:19.246Z,9.10
2019-02-07T06:03:10.232Z,10.70
2019-02-07T06:05:55.834Z,13.70
2019-02-07T06:08:41.588Z,15.03
2019-02-07T06:11:27.844Z,14.43
2019-02-07T06:14:13.512Z,14.77
2019-02-07T06:17:02.983Z,16.07
2019-02-07T06:19:40.525Z,11.90
2019-02-07T06:22:33.162Z,13.80
2019-02-07T06:25:18.233Z,14.77
2019-02-07T06:28:20.042Z,15.67
2019-02-07T06:31:15.948Z,14.30
2019-02-07T06:33:59.872Z,21.17
2019-02-07T06:36:58.980Z,25.97
2019-02-07T06:39:36.439Z,23.23
2019-02-07T06:42:21.877Z,25.20
2019-02-07T06:45:07.482Z,27.70
2019-02-07T06:47:49.338Z,35.33
2019-02-07T06:50:36.635Z,32.30
2019-02-07T06:53:22.814Z,26.93
2019-02-07T06:56:09.776Z,24.67
2019-02-07T06:58:55.245Z,29.33
2019-02-07T07:01:54.182Z,36.20
2019-02-07T07:04:45.826Z,32.70
2019-02-07T07:07:48.067Z,35.20
2019-02-07T07:10:33.495Z,35.77
2019-02-07T07:13:20.559Z,30.97
2019-02-07T07:16:08.380Z,35.37
2019-02-07T07:18:53.963Z,30.77
2019-02-07T07:21:41.116Z,32.63
2019-02-07T07:24:37.103Z,38.13
2019-02-07T07:27:19.638Z,36.77
2019-02-07T07:29:58.257Z,43.10
2019-02-07T07:32:43.859Z,38.30
2019-02-07T07:35:32.432Z,30.07
2019-02-07T07:38:16.515Z,36.90
2019-02-07T07:41:06.003Z,30.57
2019-02-07T07:43:49.787Z,34.00
2019-02-07T07:46:36.755Z,37.80
2019-02-07T07:49:23.701Z,31.83
2019-02-07T07:52:09.331Z,31.53
2019-02-07T07:54:45.364Z,30.90
2019-02-07T07:57:25.047Z,31.53
2019-02-07T08:00:10.798Z,29.67
2019-02-07T08:02:57.779Z,26.03
2019-02-07T08:05:50.348Z,20.93
2019-02-07T08:08:43.230Z,18.07
2019-02-07T08:11:19.600Z,16.23
2019-02-07T08:14:09.384Z,14.90
2019-02-07T08:17:01.900Z,16.00
2019-02-07T08:19:51.672Z,16.17
2019-02-07T08:22:27.219Z,12.80
2019-02-07T08:25:12.999Z,15.30
2019-02-07T08:27:58.716Z,13.47
2019-02-07T08:30:44.445Z,15.60
2019-02-07T08:33:43.447Z,18.30
2019-02-07T08:36:42.652Z,23.77
2019-02-07T08:39:34.055Z,19.87
2019-02-07T08:42:29.776Z,17.80
2019-02-07T08:45:10.344Z,19.23
2019-02-07T08:47:58.551Z,16.87
2019-02-07T08:50:56.572Z,17.37
2019-02-07T08:53:42.156Z,17.70
2019-02-07T08:56:26.317Z,14.50
2019-02-07T08:59:16.074Z,15.23
2019-02-07T09:02:01.680Z,13.33
2019-02-07T09:04:40.458Z,12.53
2019-02-07T09:07:21.158Z,12.80
2019-02-07T09:10:05.276Z,15.70
2019-02-07T09:13:10.245Z,26.67
2019-02-07T09:15:55.819Z,26.23
2019-02-07T09:18:39.219Z,17.10
2019-02-07T09:21:38.222Z,21.97
2019-02-07T09:24:37.280Z,19.47
2019-02-07T09:27:23.108Z,21.63
2019-02-07T09:30:08.781Z,23.47
2019-02-07T09:33:04.704Z,26.60
2019-02-07T09:35:49.919Z,26.03
2019-02-07T09:38:35.717Z,38.83
2019-02-07T09:41:29.454Z,29.47
2019-02-07T09:44:15.069Z,31.27
2019-02-07T09:47:01.934Z,30.93
2019-02-07T09:49:40.959Z,28.53
2019-02-07T09:52:26.027Z,23.17
2019-02-07T09:55:13.184Z,24.30
2019-02-07T09:57:47.427Z,20.93
2019-02-07T10:00:32.731Z,16.40
2019-02-07T10:03:16.111Z,13.50
2019-02-07T10:06:03.080Z,14.00
2019-02-07T10:08:48.222Z,12.53
2019-02-07T10:11:25.680Z,15.43
2019-02-07T10:14:12.638Z,11.03
2019-02-07T10:17:11.621Z,11.47
2019-02-07T10:20:13.515Z,7.60
2019-02-07T10:23:03.217Z,10.10
2019-02-07T10:25:59.044Z,8.20
2019-02-07T10:28:46.028Z,8.10
2019-02-07T10:31:21.408Z,9.00
2019-02-07T10:34:06.739Z,8.37
2019-02-07T10:36:43.723Z,8.93
2019-02-07T10:39:31.399Z,7.10
2019-02-07T10:42:17.449Z,5.23
2019-02-07T10:45:04.530Z,5.53
2019-02-07T10:47:54.384Z,5.30
2019-02-07T10:50:41.315Z,4.63
2019-02-07T10:53:33.888Z,7.30
2019-02-07T10:56:19.571Z,9.40
2019-02-07T10:59:06.913Z,3.83
2019-02-07T11:01:45.086Z,4.03
2019-02-07T11:04:30.532Z,4.33
2019-02-07T11:07:17.507Z,2.70
2019-02-07T11:10:07.880Z,3.27
2019-02-07T11:12:59.760Z,2.43
2019-02-07T11:16:00.828Z,2.60
2019-02-07T11:18:55.556Z,2.87
2019-02-07T11:21:32.909Z,3.43
2019-02-07T11:24:31.799Z,2.40
2019-02-07T11:27:11.347Z,3.53
2019-02-07T11:30:05.923Z,2.50
2019-02-07T11:32:43.411Z,2.73
2019-02-07T11:35:40.852Z,3.83
2019-02-07T11:38:34.308Z,3.97
2019-02-07T11:41:22.515Z,3.10
2019-02-07T11:44:15.566Z,2.87
2019-02-07T11:46:50.745Z,2.87
2019-02-07T11:49:31.260Z,3.13
2019-02-07T11:52:30.255Z,2.77
2019-02-07T11:55:14.734Z,2.93
2019-02-07T11:57:54.131Z,3.30
2019-02-07T12:00:43.651Z,3.43
2019-02-07T12:03:30.580Z,3.47
2019-02-07T12:06:29.397Z,3.83
2019-02-07T12:09:22.152Z,3.97
2019-02-07T12:12:07.210Z,3.47
2019-02-07T12:15:05.988Z,3.77
2019-02-07T12:17:50.826Z,4.27
2019-02-07T12:20:34.528Z,3.63
2019-02-07T12:23:21.495Z,4.50
2019-02-07T12:26:01.824Z,7.27
2019-02-07T12:28:47.012Z,4.93
2019-02-07T12:31:32.698Z,5.17
2019-02-07T12:34:31.752Z,7.17
2019-02-07T12:37:16.922Z,8.33
2019-02-07T12:40:03.784Z,6.57
2019-02-07T12:42:40.073Z,8.20
2019-02-07T12:45:17.887Z,11.10
2019-02-07T12:47:55.551Z,11.10
2019-02-07T12:50:45.393Z,12.03
2019-02-07T12:53:35.192Z,15.40
2019-02-07T12:56:20.142Z,17.57
2019-02-07T12:59:05.992Z,17.63
2019-02-07T13:01:51.381Z,17.43
2019-02-07T13:04:41.260Z,21.27
2019-02-07T13:07:34.580Z,24.70
2019-02-07T13:10:22.252Z,22.57
2019-02-07T13:13:07.704Z,22.40
2019-02-07T13:15:56.519Z,24.87
2019-02-07T13:18:38.263Z,25.90
2019-02-07T13:21:13.756Z,24.77
2019-02-07T13:24:00.723Z,26.77
2019-02-07T13:26:41.332Z,28.33
2019-02-07T13:29:40.420Z,32.50
2019-02-07T13:32:33.459Z,27.57
2019-02-07T13:35:19.345Z,35.83
2019-02-07T13:38:18.428Z,33.07
2019-02-07T13:41:17.527Z,32.40
2019-02-07T13:44:12.373Z,28.17
2019-02-07T13:46:48.723Z,28.10
2019-02-07T13:49:54.012Z,32.53
2019-02-07T13:52:39.354Z,34.03
2019-02-07T13:55:30.271Z,34.67
2019-02-07T13:58:26.187Z,39.03
2019-02-07T14:01:15.888Z,37.80
2019-02-07T14:04:04.575Z,36.90
2019-02-07T14:06:49.779Z,42.80
2019-02-07T14:09:35.520Z,33.77
2019-02-07T14:12:25.550Z,47.53
2019-02-07T14:15:01.602Z,45.80
2019-02-07T14:18:03.956Z,44.03
2019-02-07T14:20:49.280Z,41.47
2019-02-07T14:23:45.304Z,44.83
2019-02-07T14:26:29.863Z,43.87
2019-02-07T14:29:13.513Z,39.10
2019-02-07T14:31:59.100Z,39.73
2019-02-07T14:34:48.871Z,40.43
2019-02-07T14:37:34.464Z,42.80
2019-02-07T14:40:30.506Z,46.00
2019-02-07T14:43:03.159Z,45.27
2019-02-07T14:45:51.374Z,41.63
2019-02-07T14:48:25.543Z,39.90
2019-02-07T14:50:53.723Z,40.17
2019-02-07T14:53:21.068Z,39.90
2019-02-07T14:55:48.413Z,39.50
2019-02-07T14:58:15.736Z,37.07
2019-02-07T15:00:43.073Z,40.23
2019-02-07T15:03:10.380Z,39.50
2019-02-07T15:05:37.745Z,40.60
2019-02-07T15:08:05.047Z,42.27
2019-02-07T15:10:32.492Z,41.60
2019-02-07T15:13:01.331Z,43.30
2019-02-07T15:15:28.768Z,36.37
2019-02-07T15:17:56.071Z,31.43
2019-02-07T15:20:26.311Z,47.63
2019-02-07T15:22:52.643Z,45.33
2019-02-07T15:25:20.375Z,43.23
2019-02-07T15:27:48.232Z,31.07
2019-02-07T15:30:16.314Z,38.10
2019-02-07T15:32:43.828Z,44.57
2019-02-07T15:35:15.797Z,36.77
2019-02-07T15:37:43.327Z,36.60
2019-02-07T15:40:14.218Z,40.55
2019-02-07T15:42:41.810Z,30.20
2019-02-07T15:45:10.161Z,34.97
2019-02-07T15:47:37.836Z,31.87
2019-02-07T15:50:11.855Z,31.90
2019-02-07T15:52:39.372Z,31.60
2019-02-07T15:55:07.022Z,29.93
2019-02-07T15:57:34.865Z,31.33
2019-02-07T16:00:10.877Z,30.13
2019-02-07T16:02:49.818Z,25.03
2019-02-07T16:05:17.646Z,31.00
2019-02-07T16:07:45.326Z,27.27
2019-02-07T16:10:14.540Z,28.03
2019-02-07T16:12:42.081Z,24.13
2019-02-07T16:15:10.425Z,23.73
2019-02-07T16:17:38.279Z,22.77
2019-02-07T16:20:10.301Z,21.90
2019-02-07T16:22:38.101Z,25.43
2019-02-07T16:25:08.407Z,27.37
2019-02-07T16:27:36.084Z,23.23
2019-02-07T16:30:09.814Z,27.30
2019-02-07T16:32:37.631Z,26.27
2019-02-07T16:35:06.227Z,23.63
2019-02-07T16:37:33.851Z,21.73
2019-02-07T16:40:01.339Z,23.27
2019-02-07T16:42:29.221Z,22.57
2019-02-07T16:44:56.820Z,22.23
2019-02-07T16:47:24.634Z,21.13
2019-02-07T16:49:52.160Z,20.07
2019-02-07T16:52:19.684Z,18.80
2019-02-07T16:54:47.126Z,20.03
2019-02-07T16:57:15.032Z,17.03
2019-02-07T17:00:02.450Z,13.87
2019-02-07T17:02:41.869Z,11.57
2019-02-07T17:05:12.618Z,14.10
2019-02-07T17:07:58.896Z,14.90
2019-02-07T17:10:31.802Z,14.03
2019-02-07T17:13:12.783Z,14.37
2019-02-07T17:16:03.326Z,16.17
2019-02-07T17:18:51.600Z,14.77
2019-02-07T17:21:49.862Z,13.67
2019-02-07T17:31:50.751Z,11.10
2019-02-07T17:34:57.748Z,12.70
2019-02-07T17:38:09.332Z,10.53
2019-02-07T17:41:01.541Z,13.17
2019-02-07T17:43:29.494Z,9.73
2019-02-07T17:45:57.113Z,10.40
2019-02-07T17:48:24.792Z,10.77
2019-02-07T17:50:52.474Z,13.23
2019-02-07T17:53:20.460Z,13.73
2019-02-07T17:55:48.398Z,10.60
2019-02-07T17:58:15.916Z,11.47
2019-02-07T18:00:52.358Z,12.60
2019-02-07T18:03:19.743Z,11.73
2019-02-07T18:05:47.804Z,13.27
2019-02-07T18:08:16.251Z,10.43
2019-02-07T18:10:43.879Z,13.10
2019-02-07T18:13:12.048Z,12.40
2019-02-07T18:15:39.876Z,10.37
2019-02-07T18:18:07.750Z,13.43
2019-02-07T18:20:35.526Z,14.77
2019-02-07T18:23:03.822Z,14.27
2019-02-07T18:25:31.482Z,13.87
2019-02-07T18:27:59.644Z,17.30
2019-02-07T18:30:27.239Z,14.43
2019-02-07T18:32:54.980Z,17.33
2019-02-07T18:35:23.080Z,16.73
2019-02-07T18:37:56.054Z,18.47
2019-02-07T18:40:24.936Z,15.97
2019-02-07T18:42:53.061Z,16.87
2019-02-07T18:45:22.134Z,21.03
2019-02-07T18:47:49.979Z,22.10
2019-02-07T18:50:29.785Z,24.27
2019-02-07T18:52:57.389Z,26.43
2019-02-07T18:55:25.412Z,28.83
2019-02-07T18:57:53.199Z,32.60
2019-02-07T19:00:23.892Z,30.63
2019-02-07T19:02:51.969Z,28.00
2019-02-07T19:05:20.734Z,30.27
2019-02-07T19:07:48.356Z,36.17
2019-02-07T19:10:17.775Z,38.90
2019-02-07T19:12:53.407Z,29.40
2019-02-07T19:15:47.079Z,36.20
2019-02-07T19:18:14.770Z,34.77
2019-02-07T19:20:42.479Z,34.17
2019-02-07T19:23:10.258Z,35.60
2019-02-07T19:25:38.188Z,38.80
2019-02-07T19:28:08.194Z,36.20
2019-02-07T19:30:36.165Z,36.40
2019-02-07T19:33:04.567Z,32.27
2019-02-07T19:35:32.151Z,39.80
2019-02-07T19:37:59.848Z,36.53
2019-02-07T19:40:31.133Z,36.93
2019-02-07T19:42:58.995Z,37.17
2019-02-07T19:45:26.576Z,36.73
2019-02-07T19:47:54.161Z,46.97
2019-02-07T19:50:23.297Z,49.57
2019-02-07T19:52:50.875Z,42.37
2019-02-07T19:55:20.753Z,46.33
2019-02-07T19:57:48.303Z,35.27
2019-02-07T20:00:21.196Z,40.50
2019-02-07T20:02:48.669Z,40.10
2019-02-07T20:05:16.252Z,42.60
2019-02-07T20:07:43.739Z,41.23
2019-02-07T20:10:13.606Z,54.93
2019-02-07T20:12:42.549Z,49.43
2019-02-07T20:15:14.943Z,41.87
2019-02-07T20:17:42.354Z,43.77
2019-02-07T20:20:10.343Z,50.77
2019-02-07T20:22:37.810Z,44.03
2019-02-07T20:25:06.202Z,50.60
2019-02-07T20:27:33.704Z,48.80
2019-02-07T20:30:01.121Z,42.67
2019-02-07T20:32:28.648Z,47.57
2019-02-07T20:34:58.976Z,45.83
2019-02-07T20:37:27.311Z,51.03
2019-02-07T20:39:54.902Z,60.57
2019-02-07T20:42:22.382Z,50.40
2019-02-07T20:44:49.891Z,52.70
2019-02-07T20:47:17.416Z,53.30
2019-02-07T20:49:44.941Z,51.73
2019-02-07T20:52:12.579Z,62.13
2019-02-07T20:54:40.257Z,64.70
2019-02-07T20:57:08.382Z,54.37
2019-02-07T20:59:35.872Z,57.03
2019-02-07T21:02:03.708Z,58.57
2019-02-07T21:04:31.054Z,62.27
2019-02-07T21:06:58.560Z,31.50
2019-02-07T21:09:26.125Z,62.67
2019-02-07T21:11:53.962Z,62.67
2019-02-07T21:14:21.356Z,62.77
2019-02-07T21:16:49.013Z,73.33
2019-02-07T21:19:16.570Z,73.17
2019-02-07T21:21:43.923Z,69.97
2019-02-07T21:24:11.273Z,64.80
2019-02-07T21:26:39.033Z,80.90
2019-02-07T21:29:06.534Z,70.23
2019-02-07T21:31:34.333Z,64.43
2019-02-07T21:34:01.676Z,62.50
2019-02-07T21:36:29.176Z,70.97
2019-02-07T21:38:56.701Z,67.43
2019-02-07T21:41:24.383Z,67.30
2019-02-07T21:43:51.854Z,67.97
2019-02-07T21:46:19.355Z,62.30
2019-02-07T21:48:46.726Z,62.03
2019-02-07T21:51:14.080Z,63.53
2019-02-07T21:53:41.526Z,59.27
2019-02-07T21:56:08.934Z,62.83
2019-02-07T21:58:36.436Z,53.93
2019-02-07T22:01:04.327Z,54.70
2019-02-07T22:03:31.819Z,58.57
2019-02-07T22:05:59.308Z,56.47
2019-02-07T22:08:26.718Z,58.07
2019-02-07T22:10:54.441Z,52.10
2019-02-07T22:13:21.806Z,60.93
2019-02-07T22:15:49.158Z,54.50
2019-02-07T22:18:16.538Z,51.10
2019-02-07T22:20:44.946Z,51.83
2019-02-07T22:23:12.490Z,49.20
2019-02-07T22:25:40.084Z,42.63
2019-02-07T22:28:08.492Z,52.37
2019-02-07T22:30:36.261Z,54.33
2019-02-07T22:33:04.320Z,48.20
2019-02-07T22:35:31.801Z,53.20
2019-02-07T22:37:59.836Z,53.60
2019-02-07T22:40:27.230Z,45.87
2019-02-07T22:42:54.732Z,51.20
2019-02-07T22:45:23.682Z,43.63
2019-02-07T22:47:51.167Z,48.90
2019-02-07T22:50:23.197Z,51.57
2019-02-07T22:52:56.821Z,46.00
2019-02-07T22:55:20.527Z,49.17
2019-02-07T22:57:48.096Z,47.60
2019-02-07T23:01:06.156Z,40.73
2019-02-07T23:03:33.991Z,43.00
2019-02-07T23:06:01.475Z,44.27
2019-02-07T23:08:28.933Z,32.17
2019-02-07T23:10:56.325Z,42.83
2019-02-07T23:13:23.822Z,41.20
2019-02-07T23:15:51.631Z,44.20
2019-02-07T23:18:19.173Z,41.40
2019-02-07T23:20:46.895Z,44.73
2019-02-07T23:23:14.631Z,42.60
2019-02-07T23:25:42.911Z,38.57
2019-02-07T23:28:10.754Z,45.23
2019-02-07T23:30:38.551Z,45.83
2019-02-07T23:33:06.081Z,41.17
2019-02-07T23:35:33.560Z,30.73
2019-02-07T23:38:00.919Z,32.77
2019-02-07T23:40:28.362Z,36.33
2019-02-07T23:42:56.330Z,33.53
2019-02-07T23:45:23.977Z,35.60
2019-02-07T23:47:52.184Z,33.83
2019-02-07T23:50:19.964Z,31.90
2019-02-07T23:52:47.662Z,34.47
2019-02-07T23:55:15.914Z,31.77
2019-02-07T23:57:43.877Z,31.07
